createdAt,value
2023-02-18T00:01:43.724Z,13.94
2023-02-18T00:04:12.144Z,13.92
2023-02-18T00:06:40.655Z,13.78
2023-02-18T00:09:11.341Z,13.77
2023-02-18T00:11:40.285Z,13.76
2023-02-18T00:14:13.529Z,13.76
2023-02-18T00:16:42.814Z,13.74
2023-02-18T00:19:15.450Z,13.70
2023-02-18T00:21:43.858Z,13.70
2023-02-18T00:24:16.521Z,13.67
2023-02-18T00:26:45.549Z,13.65
2023-02-18T00:29:14.050Z,13.62
2023-02-18T00:31:42.553Z,13.64
2023-02-18T00:34:12.790Z,13.62
2023-02-18T00:36:41.733Z,13.63
2023-02-18T00:39:13.214Z,13.61
2023-02-18T00:41:42.191Z,13.61
2023-02-18T00:44:10.739Z,13.59
2023-02-18T00:46:39.321Z,13.59
2023-02-18T00:49:08.295Z,13.58
2023-02-18T00:51:37.399Z,13.62
2023-02-18T00:54:05.751Z,13.62
2023-02-18T00:56:35.560Z,13.64
2023-02-18T00:59:04.260Z,13.62
2023-02-18T01:01:32.654Z,13.66
2023-02-18T01:04:01.010Z,13.61
2023-02-18T01:06:29.316Z,13.66
2023-02-18T01:08:57.771Z,13.64
2023-02-18T01:11:26.252Z,13.65
2023-02-18T01:13:55.853Z,13.66
2023-02-18T01:16:24.755Z,13.66
2023-02-18T01:18:53.107Z,13.67
2023-02-18T01:21:21.350Z,13.66
2023-02-18T01:23:49.815Z,13.69
2023-02-18T01:26:18.098Z,13.63
2023-02-18T01:28:46.476Z,13.66
2023-02-18T01:31:17.029Z,13.66
2023-02-18T01:33:45.449Z,13.66
2023-02-18T01:36:14.478Z,13.66
2023-02-18T01:38:42.819Z,13.64
2023-02-18T01:41:11.864Z,13.66
2023-02-18T01:43:40.588Z,13.66
2023-02-18T01:46:18.371Z,13.66
2023-02-18T01:48:52.990Z,13.64
2023-02-18T01:51:25.375Z,13.65
2023-02-18T01:53:58.454Z,13.65
2023-02-18T01:56:31.361Z,13.56
2023-02-18T01:59:03.546Z,13.59
2023-02-18T02:01:34.460Z,13.61
2023-02-18T02:04:03.477Z,13.62
2023-02-18T02:06:32.557Z,13.56
2023-02-18T02:09:04.949Z,13.56
2023-02-18T02:12:20.864Z,13.50
2023-02-18T02:15:16.947Z,13.53
2023-02-18T02:17:58.975Z,13.56
2023-02-18T02:21:18.722Z,13.53
2023-02-18T02:24:54.117Z,13.55
2023-02-18T02:27:27.636Z,13.53
2023-02-18T02:30:43.622Z,13.56
2023-02-18T02:33:53.770Z,13.57
2023-02-18T02:36:26.624Z,13.59
2023-02-18T02:39:03.325Z,13.58
2023-02-18T02:41:48.441Z,13.57
2023-02-18T02:44:22.954Z,13.62
2023-02-18T02:46:56.110Z,13.64
2023-02-18T02:49:35.369Z,13.63
2023-02-18T02:52:13.452Z,13.64
2023-02-18T02:54:42.046Z,13.67
2023-02-18T02:57:54.953Z,13.62
2023-02-18T03:00:34.021Z,13.62
2023-02-18T03:03:39.113Z,13.58
2023-02-18T03:06:38.822Z,13.63
2023-02-18T03:09:15.309Z,13.58
2023-02-18T03:11:56.006Z,13.62
2023-02-18T03:14:31.686Z,13.66
2023-02-18T03:17:04.823Z,13.68
2023-02-18T03:19:37.949Z,13.71
2023-02-18T03:22:12.840Z,13.71
2023-02-18T03:24:44.868Z,13.73
2023-02-18T03:27:21.265Z,13.71
2023-02-18T03:29:56.789Z,13.67
2023-02-18T03:32:26.835Z,13.64
2023-02-18T03:35:00.472Z,13.68
2023-02-18T03:37:29.144Z,13.69
2023-02-18T03:40:02.630Z,13.71
2023-02-18T03:42:31.243Z,13.73
2023-02-18T03:44:59.953Z,13.64
2023-02-18T03:47:28.415Z,13.68
2023-02-18T03:49:56.684Z,13.74
2023-02-18T03:52:25.005Z,13.75
2023-02-18T03:54:53.307Z,13.76
2023-02-18T03:57:22.962Z,13.76
2023-02-18T03:59:51.246Z,13.71
2023-02-18T04:02:19.517Z,13.73
2023-02-18T04:04:47.806Z,13.77
2023-02-18T04:07:16.145Z,13.73
2023-02-18T04:09:44.430Z,13.78
2023-02-18T04:12:12.772Z,13.80
2023-02-18T04:14:42.353Z,13.83
2023-02-18T04:17:10.882Z,13.84
2023-02-18T04:19:39.143Z,13.86
2023-02-18T04:22:07.412Z,13.87
2023-02-18T04:24:35.667Z,13.83
2023-02-18T04:27:03.894Z,13.86
2023-02-18T04:29:32.387Z,13.87
2023-02-18T04:32:02.180Z,13.86
2023-02-18T04:34:30.435Z,13.82
2023-02-18T04:36:58.689Z,13.83
2023-02-18T04:39:27.145Z,13.85
2023-02-18T04:41:55.426Z,13.85
2023-02-18T04:44:23.681Z,13.86
2023-02-18T04:46:51.914Z,13.86
2023-02-18T04:49:21.505Z,13.81
2023-02-18T04:51:49.722Z,13.84
2023-02-18T04:54:17.977Z,13.84
2023-02-18T04:56:46.229Z,13.84
2023-02-18T04:59:14.526Z,13.83
2023-02-18T05:01:42.851Z,13.83
2023-02-18T05:04:11.171Z,13.81
2023-02-18T05:06:43.096Z,13.77
2023-02-18T05:09:11.528Z,13.80
2023-02-18T05:11:39.845Z,13.71
2023-02-18T05:14:08.125Z,13.74
2023-02-18T05:16:36.576Z,13.73
2023-02-18T05:19:04.880Z,13.71
2023-02-18T05:21:33.368Z,13.71
2023-02-18T05:24:02.950Z,13.71
2023-02-18T05:26:31.198Z,13.63
2023-02-18T05:28:59.500Z,13.64
2023-02-18T05:31:27.937Z,13.61
2023-02-18T05:33:56.236Z,13.66
2023-02-18T05:36:24.819Z,13.62
2023-02-18T05:38:53.263Z,13.67
2023-02-18T05:41:23.245Z,13.65
2023-02-18T05:44:08.829Z,13.70
2023-02-18T05:46:37.184Z,13.67
2023-02-18T05:49:05.587Z,13.66
2023-02-18T05:51:33.809Z,13.67
2023-02-18T05:54:02.135Z,13.70
2023-02-18T05:56:31.817Z,13.73
2023-02-18T05:59:00.106Z,13.74
2023-02-18T06:01:28.366Z,13.77
2023-02-18T06:03:56.707Z,13.75
2023-02-18T06:06:25.184Z,13.79
2023-02-18T06:08:53.487Z,13.81
2023-02-18T06:11:21.744Z,13.85
2023-02-18T06:13:51.393Z,13.84
2023-02-18T06:16:19.761Z,13.84
2023-02-18T06:18:48.070Z,13.84
2023-02-18T06:21:16.407Z,13.86
2023-02-18T06:23:44.736Z,13.87
2023-02-18T06:26:13.328Z,13.87
2023-02-18T06:28:41.586Z,13.86
2023-02-18T06:31:11.301Z,13.87
2023-02-18T06:33:39.573Z,13.87
2023-02-18T06:36:11.856Z,13.83
2023-02-18T06:38:41.496Z,13.84
2023-02-18T06:41:10.133Z,13.83
2023-02-18T06:43:38.921Z,13.81
2023-02-18T06:46:08.207Z,13.83
2023-02-18T06:48:38.963Z,13.83
2023-02-18T06:51:07.536Z,13.79
2023-02-18T06:53:36.196Z,13.81
2023-02-18T06:56:04.591Z,13.80
2023-02-18T06:58:32.852Z,13.80
2023-02-18T07:01:01.375Z,13.80
2023-02-18T07:03:29.746Z,13.83
2023-02-18T07:05:59.922Z,13.83
2023-02-18T07:08:28.299Z,13.84
2023-02-18T07:10:56.590Z,13.85
2023-02-18T07:13:24.867Z,13.85
2023-02-18T07:15:53.112Z,13.85
2023-02-18T07:18:21.340Z,13.85
2023-02-18T07:20:49.570Z,13.85
2023-02-18T07:23:19.171Z,13.78
2023-02-18T07:25:47.411Z,13.85
2023-02-18T07:28:15.663Z,13.81
2023-02-18T07:30:43.882Z,13.77
2023-02-18T07:33:14.124Z,13.77
2023-02-18T07:35:42.342Z,13.82
2023-02-18T07:38:10.645Z,13.83
2023-02-18T07:40:40.579Z,13.83
2023-02-18T07:43:08.848Z,13.82
2023-02-18T07:45:39.256Z,13.86
2023-02-18T07:48:07.690Z,13.87
2023-02-18T07:50:37.158Z,13.89
2023-02-18T07:53:06.313Z,13.88
2023-02-18T07:55:48.610Z,13.90
2023-02-18T07:58:19.539Z,13.95
2023-02-18T08:00:49.488Z,13.98
2023-02-18T08:03:19.096Z,14.02
2023-02-18T08:05:48.966Z,14.06
2023-02-18T08:08:20.515Z,14.08
2023-02-18T08:10:49.583Z,14.14
2023-02-18T08:13:19.254Z,14.12
2023-02-18T08:15:48.224Z,14.18
2023-02-18T08:18:20.414Z,14.19
2023-02-18T08:20:49.758Z,14.24
2023-02-18T08:23:20.334Z,14.28
2023-02-18T08:25:50.248Z,14.32
2023-02-18T08:28:20.779Z,14.36
2023-02-18T08:30:50.695Z,14.41
2023-02-18T08:33:20.635Z,14.46
2023-02-18T08:35:50.773Z,14.48
2023-02-18T08:38:19.222Z,14.55
2023-02-18T08:40:47.933Z,14.61
2023-02-18T08:43:19.339Z,14.64
2023-02-18T08:45:47.610Z,14.72
2023-02-18T08:48:20.570Z,14.75
2023-02-18T08:50:49.520Z,14.83
2023-02-18T08:53:18.697Z,14.91
2023-02-18T08:55:47.101Z,15.01
2023-02-18T08:58:15.389Z,15.01
2023-02-18T09:00:46.387Z,15.06
2023-02-18T09:03:16.200Z,15.15
2023-02-18T09:05:44.519Z,15.25
2023-02-18T09:08:12.746Z,15.26
2023-02-18T09:10:40.960Z,15.36
2023-02-18T09:13:09.181Z,15.44
2023-02-18T09:15:37.512Z,15.44
2023-02-18T09:18:07.290Z,15.43
2023-02-18T09:20:35.563Z,15.49
2023-02-18T09:23:04.204Z,15.47
2023-02-18T09:25:32.399Z,15.50
2023-02-18T09:28:00.717Z,15.52
2023-02-18T09:30:29.053Z,15.56
2023-02-18T09:32:57.334Z,15.64
2023-02-18T09:35:26.957Z,15.69
2023-02-18T09:37:55.152Z,15.74
2023-02-18T09:40:27.701Z,15.80
2023-02-18T09:42:58.131Z,15.84
2023-02-18T09:45:27.373Z,15.93
2023-02-18T09:47:56.326Z,16.01
2023-02-18T09:50:30.036Z,16.09
2023-02-18T09:53:00.930Z,16.15
2023-02-18T09:55:32.932Z,16.24
2023-02-18T09:58:04.787Z,16.31
2023-02-18T10:00:39.225Z,16.42
2023-02-18T10:03:14.685Z,16.50
2023-02-18T10:05:57.787Z,16.58
2023-02-18T10:08:29.801Z,16.60
2023-02-18T10:10:58.123Z,16.69
2023-02-18T10:13:30.444Z,16.72
2023-02-18T10:15:58.868Z,16.76
2023-02-18T10:21:10.943Z,16.66
2023-02-18T10:23:43.434Z,16.72
2023-02-18T10:26:16.680Z,16.78
2023-02-18T10:28:45.976Z,16.76
2023-02-18T10:31:21.715Z,16.67
2023-02-18T10:33:59.035Z,16.72
2023-02-18T10:36:35.535Z,16.73
2023-02-18T10:39:37.867Z,16.74
2023-02-18T10:42:25.325Z,16.65
2023-02-18T10:45:08.003Z,16.70
2023-02-18T10:47:49.258Z,16.74
2023-02-18T10:50:30.198Z,16.69
2023-02-18T10:53:09.351Z,16.73
2023-02-18T10:55:40.712Z,16.74
2023-02-18T10:58:28.589Z,16.77
2023-02-18T11:00:57.160Z,16.83
2023-02-18T11:03:27.376Z,16.81
2023-02-18T11:05:57.817Z,16.70
2023-02-18T11:08:41.108Z,16.72
2023-02-18T11:11:16.232Z,16.69
2023-02-18T11:13:44.846Z,16.70
2023-02-18T11:16:15.825Z,16.65
2023-02-18T11:18:46.549Z,16.61
2023-02-18T11:21:30.422Z,16.61
2023-02-18T11:24:10.150Z,16.65
2023-02-18T11:26:41.077Z,16.57
2023-02-18T11:29:17.142Z,16.57
2023-02-18T11:31:48.544Z,16.55
2023-02-18T11:34:20.523Z,16.54
2023-02-18T11:36:49.893Z,16.50
2023-02-18T11:39:24.695Z,16.51
2023-02-18T11:41:58.604Z,16.53
2023-02-18T11:44:31.324Z,16.49
2023-02-18T11:47:03.592Z,16.57
2023-02-18T11:49:35.055Z,16.57
2023-02-18T11:52:18.587Z,16.56
2023-02-18T11:55:02.884Z,16.57
2023-02-18T11:57:31.892Z,16.60
2023-02-18T12:00:01.559Z,16.62
2023-02-18T12:02:35.926Z,16.57
2023-02-18T12:05:11.290Z,16.59
2023-02-18T12:07:45.748Z,16.59
2023-02-18T12:10:22.889Z,16.59
2023-02-18T12:13:00.272Z,16.58
2023-02-18T12:15:42.537Z,16.59
2023-02-18T12:18:25.739Z,16.58
2023-02-18T12:21:12.795Z,16.64
2023-02-18T12:23:53.059Z,16.62
2023-02-18T12:26:30.291Z,16.68
2023-02-18T12:29:23.890Z,16.73
2023-02-18T12:32:06.741Z,16.67
2023-02-18T12:34:51.309Z,16.74
2023-02-18T12:38:06.218Z,16.79
2023-02-18T12:40:53.227Z,16.80
2023-02-18T12:43:35.120Z,16.83
2023-02-18T12:46:46.980Z,16.87
2023-02-18T12:49:52.383Z,16.86
2023-02-18T12:52:37.143Z,16.82
2023-02-18T12:55:38.170Z,16.88
2023-02-18T12:58:20.681Z,16.94
2023-02-18T13:01:10.291Z,16.93
2023-02-18T13:04:18.012Z,16.96
2023-02-18T13:07:33.694Z,16.97
2023-02-18T13:10:24.553Z,16.98
2023-02-18T13:13:00.106Z,16.95
2023-02-18T13:15:38.831Z,16.93
2023-02-18T13:18:14.774Z,16.96
2023-02-18T13:20:46.815Z,16.99
2023-02-18T13:23:21.357Z,16.91
2023-02-18T13:25:58.957Z,16.90
2023-02-18T13:28:33.983Z,16.89
2023-02-18T13:31:17.384Z,16.92
2023-02-18T13:33:55.380Z,16.91
2023-02-18T13:36:41.653Z,16.93
2023-02-18T13:39:19.306Z,16.97
2023-02-18T13:41:49.777Z,16.94
2023-02-18T13:45:07.478Z,16.94
2023-02-18T13:47:42.049Z,16.97
2023-02-18T13:50:41.814Z,16.90
2023-02-18T13:53:32.553Z,16.92
2023-02-18T13:56:05.980Z,16.91
2023-02-18T13:58:42.090Z,16.92
2023-02-18T14:01:22.520Z,16.90
2023-02-18T14:04:02.433Z,16.92
2023-02-18T14:06:35.266Z,16.95
2023-02-18T14:09:42.074Z,16.91
2023-02-18T14:12:40.654Z,16.91
2023-02-18T14:15:55.319Z,16.91
2023-02-18T14:18:39.170Z,16.92
2023-02-18T14:21:38.002Z,16.89
2023-02-18T14:24:14.404Z,16.91
2023-02-18T14:26:47.391Z,16.92
2023-02-18T14:29:28.373Z,16.90
2023-02-18T14:32:04.215Z,16.92
2023-02-18T14:35:05.586Z,16.92
2023-02-18T14:37:59.571Z,16.89
2023-02-18T14:40:53.931Z,16.86
2023-02-18T14:43:49.060Z,16.90
2023-02-18T14:46:33.366Z,16.93
2023-02-18T14:49:25.628Z,16.86
2023-02-18T14:51:55.679Z,16.90
2023-02-18T14:54:28.737Z,16.90
2023-02-18T14:57:01.069Z,16.88
2023-02-18T14:59:35.431Z,16.86
2023-02-18T15:02:03.682Z,16.87
2023-02-18T15:04:32.038Z,16.91
2023-02-18T15:07:02.394Z,16.91
2023-02-18T15:09:32.404Z,16.92
2023-02-18T15:12:04.600Z,16.97
2023-02-18T15:14:37.409Z,16.95
2023-02-18T15:17:07.899Z,16.93
2023-02-18T15:19:43.185Z,16.91
2023-02-18T15:22:19.456Z,16.89
2023-02-18T15:24:50.682Z,16.89
2023-02-18T15:27:23.251Z,16.86
2023-02-18T15:29:53.403Z,16.85
2023-02-18T15:32:23.844Z,16.79
2023-02-18T15:34:54.102Z,16.75
2023-02-18T15:37:22.409Z,16.75
2023-02-18T15:39:52.492Z,16.74
2023-02-18T15:42:27.980Z,16.75
2023-02-18T15:44:59.914Z,16.69
2023-02-18T15:47:28.221Z,16.69
2023-02-18T15:50:00.107Z,16.63
2023-02-18T15:52:31.070Z,16.63
2023-02-18T15:55:06.374Z,16.63
2023-02-18T15:57:37.372Z,16.65
2023-02-18T16:00:15.016Z,16.64
2023-02-18T16:02:55.096Z,16.58
2023-02-18T16:05:28.240Z,16.57
2023-02-18T16:08:02.676Z,16.55
2023-02-18T16:10:50.005Z,16.53
2023-02-18T16:13:19.848Z,16.54
2023-02-18T16:15:51.210Z,16.46
2023-02-18T16:18:27.463Z,16.45
2023-02-18T16:21:02.002Z,16.50
2023-02-18T16:23:38.491Z,16.44
2023-02-18T16:26:33.662Z,16.42
2023-02-18T16:29:14.294Z,16.38
2023-02-18T16:31:43.127Z,16.32
2023-02-18T16:34:11.376Z,16.25
2023-02-18T16:37:00.286Z,16.23
2023-02-18T16:39:29.719Z,16.28
2023-02-18T16:41:59.285Z,16.28
2023-02-18T16:44:27.539Z,16.28
2023-02-18T16:46:55.876Z,16.30
2023-02-18T16:49:24.161Z,16.27
2023-02-18T16:51:52.476Z,16.18
2023-02-18T16:54:20.703Z,16.18
2023-02-18T16:56:49.635Z,16.19
2023-02-18T16:59:19.269Z,16.12
2023-02-18T17:01:47.653Z,16.15
2023-02-18T17:04:18.663Z,16.14
2023-02-18T17:06:48.496Z,16.10
2023-02-18T17:09:20.504Z,16.09
2023-02-18T17:11:51.372Z,16.03
2023-02-18T17:14:23.822Z,16.10
2023-02-18T17:16:54.555Z,16.10
2023-02-18T17:19:23.124Z,16.08
2023-02-18T17:21:51.449Z,16.11
2023-02-18T17:24:20.456Z,16.10
2023-02-18T17:26:48.810Z,16.11
2023-02-18T17:29:17.237Z,16.10
2023-02-18T17:31:48.185Z,16.08
2023-02-18T17:34:26.628Z,16.06
2023-02-18T17:36:55.420Z,16.06
2023-02-18T17:39:24.468Z,16.05
2023-02-18T17:41:53.264Z,16.03
2023-02-18T17:44:24.095Z,16.02
2023-02-18T17:46:54.863Z,16.01
2023-02-18T17:49:23.435Z,16.00
2023-02-18T17:51:52.607Z,16.00
2023-02-18T17:54:22.768Z,16.00
2023-02-18T17:56:51.095Z,15.99
2023-02-18T17:59:19.346Z,15.99
2023-02-18T18:01:47.602Z,15.96
2023-02-18T18:04:19.500Z,15.95
2023-02-18T18:06:49.750Z,15.94
2023-02-18T18:09:18.015Z,15.93
2023-02-18T18:11:46.271Z,15.93
2023-02-18T18:14:15.466Z,15.91
2023-02-18T18:16:43.757Z,15.91
2023-02-18T18:19:12.012Z,15.88
2023-02-18T18:21:41.949Z,15.88
2023-02-18T18:24:13.618Z,15.82
2023-02-18T18:26:41.841Z,15.82
2023-02-18T18:29:10.082Z,15.81
2023-02-18T18:31:38.478Z,15.79
2023-02-18T18:34:06.806Z,15.77
2023-02-18T18:36:35.096Z,15.76
2023-02-18T18:39:04.862Z,15.73
2023-02-18T18:41:33.069Z,15.74
2023-02-18T18:44:02.179Z,15.74
2023-02-18T18:46:30.480Z,15.69
2023-02-18T18:48:58.768Z,15.67
2023-02-18T18:51:31.376Z,15.67
2023-02-18T18:53:59.862Z,15.69
2023-02-18T18:56:29.613Z,15.64
2023-02-18T18:58:58.096Z,15.64
2023-02-18T19:01:27.581Z,15.62
2023-02-18T19:03:56.098Z,15.58
2023-02-18T19:06:24.378Z,15.57
2023-02-18T19:08:52.705Z,15.50
2023-02-18T19:11:20.956Z,15.53
2023-02-18T19:13:50.643Z,15.50
2023-02-18T19:16:22.331Z,15.38
2023-02-18T19:18:50.833Z,15.40
2023-02-18T19:21:19.077Z,15.33
2023-02-18T19:23:47.380Z,15.38
2023-02-18T19:26:17.100Z,15.34
2023-02-18T19:28:45.462Z,15.38
2023-02-18T19:31:15.611Z,15.35
2023-02-18T19:33:46.888Z,15.31
2023-02-18T19:36:16.694Z,15.20
2023-02-18T19:38:45.533Z,15.24
2023-02-18T19:41:16.928Z,15.21
2023-02-18T19:43:46.626Z,15.22
2023-02-18T19:46:18.681Z,15.22
2023-02-18T19:48:50.671Z,15.23
2023-02-18T19:51:19.459Z,15.23
2023-02-18T19:53:47.721Z,15.19
2023-02-18T19:56:16.030Z,15.17
2023-02-18T19:58:44.362Z,15.13
2023-02-18T20:01:15.641Z,15.14
2023-02-18T20:03:44.612Z,15.10
2023-02-18T20:06:17.112Z,15.15
2023-02-18T20:08:45.565Z,15.15
2023-02-18T20:11:14.220Z,15.14
2023-02-18T20:13:42.704Z,15.14
2023-02-18T20:16:12.022Z,15.14
2023-02-18T20:18:41.785Z,15.13
2023-02-18T20:21:12.596Z,15.18
2023-02-18T20:23:41.012Z,15.17
2023-02-18T20:26:10.156Z,15.15
2023-02-18T20:28:38.704Z,15.14
2023-02-18T20:31:08.707Z,15.13
2023-02-18T20:33:37.353Z,15.14
2023-02-18T20:36:08.676Z,15.13
2023-02-18T20:38:37.785Z,15.11
2023-02-18T20:41:07.362Z,15.09
2023-02-18T20:43:36.053Z,15.09
2023-02-18T20:46:05.486Z,15.08
2023-02-18T20:48:34.376Z,15.07
2023-02-18T20:51:07.963Z,15.06
2023-02-18T20:53:38.033Z,15.06
2023-02-18T20:56:08.118Z,15.05
2023-02-18T20:58:37.258Z,15.00
2023-02-18T21:01:07.937Z,15.01
2023-02-18T21:03:37.786Z,14.97
2023-02-18T21:06:10.705Z,14.96
2023-02-18T21:08:40.748Z,14.95
2023-02-18T21:11:11.779Z,14.92
2023-02-18T21:13:40.638Z,14.90
2023-02-18T21:16:10.523Z,14.87
2023-02-18T21:18:38.998Z,14.86
2023-02-18T21:21:11.336Z,14.83
2023-02-18T21:23:40.926Z,14.80
2023-02-18T21:26:12.353Z,14.78
2023-02-18T21:28:41.462Z,14.78
2023-02-18T21:31:19.251Z,14.75
2023-02-18T21:33:47.717Z,14.74
2023-02-18T21:36:18.192Z,14.71
2023-02-18T21:38:46.926Z,14.66
2023-02-18T21:41:15.254Z,14.59
2023-02-18T21:43:46.350Z,14.54
2023-02-18T21:46:18.686Z,14.51
2023-02-18T21:49:06.789Z,14.47
2023-02-18T21:52:00.366Z,14.44
2023-02-18T21:54:30.741Z,14.43
2023-02-18T21:57:00.991Z,14.39
2023-02-18T21:59:30.942Z,14.39
2023-02-18T22:02:00.888Z,14.37
2023-02-18T22:04:30.782Z,14.36
2023-02-18T22:07:01.272Z,14.36
2023-02-18T22:09:29.683Z,14.34
2023-02-18T22:11:58.002Z,14.35
2023-02-18T22:14:26.417Z,14.33
2023-02-18T22:16:54.728Z,14.34
2023-02-18T22:19:22.984Z,14.33
2023-02-18T22:21:51.410Z,14.33
2023-02-18T22:24:21.273Z,14.29
2023-02-18T22:26:50.482Z,14.25
2023-02-18T22:29:20.482Z,14.25
2023-02-18T22:31:49.564Z,14.26
2023-02-18T22:34:18.604Z,14.24
2023-02-18T22:36:47.136Z,14.22
2023-02-18T22:39:16.792Z,14.20
2023-02-18T22:41:46.483Z,14.18
2023-02-18T22:44:17.536Z,14.16
2023-02-18T22:46:46.294Z,14.15
2023-02-18T22:49:14.738Z,14.16
2023-02-18T22:51:45.161Z,14.13
2023-02-18T22:54:16.244Z,14.10
2023-02-18T22:56:47.199Z,14.06
2023-02-18T22:59:19.307Z,14.04
2023-02-18T23:01:50.549Z,14.06
2023-02-18T23:04:21.306Z,14.03
2023-02-18T23:06:50.347Z,14.05
2023-02-18T23:09:21.749Z,14.02
2023-02-18T23:11:58.050Z,13.98
2023-02-18T23:14:28.402Z,13.95
2023-02-18T23:17:14.362Z,13.98
2023-02-18T23:19:45.391Z,13.95
2023-02-18T23:22:16.183Z,13.93
2023-02-18T23:24:46.632Z,13.92
2023-02-18T23:27:17.595Z,13.91
2023-02-18T23:29:46.103Z,13.93
2023-02-18T23:32:14.873Z,13.91
2023-02-18T23:34:44.177Z,13.91
2023-02-18T23:37:12.896Z,13.89
2023-02-18T23:39:41.473Z,13.91
2023-02-18T23:42:10.038Z,13.89
2023-02-18T23:44:39.738Z,13.87
2023-02-18T23:47:08.493Z,13.85
2023-02-18T23:49:36.830Z,13.81
2023-02-18T23:52:05.280Z,13.81
2023-02-18T23:54:33.696Z,13.77
2023-02-18T23:57:02.035Z,13.76
2023-02-18T23:59:30.343Z,13.77
